Time;durP1;ratioP1;P1;durP2;ratioP2;P2;SDS_P1;SDS_P2;PMS_P1;PMS_P2;Temp;Humidity;BMP_temperature;BMP_pressure;BME280_temperature;BME280_humidity;BME280_pressure;Samples;Min_cycle;Max_cycle;Signal;HPM_P1;HPM_P2
2022/09/02 00:01:30;;;;;;;7.82;2.78;;;24.40;99.90;;;;;;5032757;28;20052;-69
2022/09/02 00:04:00;;;;;;;5.03;3.00;;;24.30;99.90;;;;;;5049060;28;20076;-69
2022/09/02 00:06:30;;;;;;;5.05;3.38;;;24.30;99.90;;;;;;5051757;28;20102;-70
2022/09/02 00:08:59;;;;;;;7.85;4.10;;;24.20;99.90;;;;;;5051534;28;20082;-71
2022/09/02 00:11:30;;;;;;;6.85;4.28;;;24.20;99.90;;;;;;5050173;28;20069;-70
2022/09/02 00:14:01;;;;;;;7.70;4.30;;;24.20;99.90;;;;;;5052785;28;20064;-69
2022/09/02 00:16:30;;;;;;;5.63;3.55;;;24.20;99.90;;;;;;5052443;28;20041;-69
2022/09/02 00:19:01;;;;;;;6.55;4.30;;;24.20;99.90;;;;;;5051335;28;20041;-69
2022/09/02 00:21:31;;;;;;;6.43;4.03;;;24.30;99.90;;;;;;5046615;28;20049;-70
2022/09/02 00:24:01;;;;;;;6.72;4.10;;;24.30;99.90;;;;;;5035904;28;20115;-70
2022/09/02 00:26:28;;;;;;;6.78;4.05;;;24.30;99.90;;;;;;5035661;28;20457;-70
2022/09/02 00:28:56;;;;;;;9.70;4.60;;;24.40;99.90;;;;;;5038517;28;20042;-69
2022/09/02 00:31:26;;;;;;;7.10;4.07;;;24.40;99.90;;;;;;5040563;28;20049;-68
2022/09/02 00:33:55;;;;;;;7.50;3.80;;;24.40;99.90;;;;;;5037203;28;20128;-69
2022/09/02 00:36:23;;;;;;;4.45;3.15;;;24.40;99.90;;;;;;5049210;28;20060;-69
2022/09/02 00:38:51;;;;;;;6.93;3.47;;;24.40;99.90;;;;;;5032740;28;20533;-70
2022/09/02 00:41:22;;;;;;;7.90;3.80;;;24.40;99.90;;;;;;5049934;28;20056;-68
2022/09/02 00:43:54;;;;;;;5.40;3.03;;;24.40;99.90;;;;;;5033947;28;20467;-69
2022/09/02 00:46:26;;;;;;;5.28;2.92;;;24.40;99.90;;;;;;5034344;28;20060;-69
2022/09/02 00:49:23;;;;;;;5.05;3.47;;;24.40;99.90;;;;;;5050322;28;20045;-69
2022/09/02 00:51:57;;;;;;;4.10;2.55;;;24.40;99.90;;;;;;5032163;28;20053;-69
2022/09/02 00:54:28;;;;;;;6.32;3.20;;;24.40;99.90;;;;;;5050199;28;20569;-69
2022/09/02 00:56:57;;;;;;;6.85;3.75;;;24.40;99.90;;;;;;5034003;28;20049;-68
2022/09/02 01:00:08;;;;;;;4.78;3.47;;;24.40;99.90;;;;;;5050624;28;20045;-70
2022/09/02 01:02:37;;;;;;;3.70;2.72;;;24.30;99.90;;;;;;5050218;28;20073;-70
2022/09/02 01:05:09;;;;;;;5.05;2.72;;;24.30;99.90;;;;;;5033953;28;20380;-70
2022/09/02 01:07:38;;;;;;;3.15;2.20;;;24.30;99.90;;;;;;5050011;28;20111;-69
2022/09/02 01:10:10;;;;;;;4.47;2.30;;;24.30;99.90;;;;;;5050254;28;20133;-70
2022/09/02 01:12:38;;;;;;;3.38;2.10;;;24.30;99.90;;;;;;5051530;28;20442;-69
2022/09/02 01:15:08;;;;;;;3.47;2.50;;;24.30;99.90;;;;;;5050105;28;20505;-70
2022/09/02 01:17:39;;;;;;;4.28;2.35;;;24.20;99.90;;;;;;5050089;28;20032;-69
2022/09/02 01:20:11;;;;;;;3.85;2.40;;;24.20;99.90;;;;;;5033552;28;20049;-70
2022/09/02 01:22:40;;;;;;;4.20;2.97;;;24.20;99.90;;;;;;5033133;28;20053;-70
2022/09/02 01:25:17;;;;;;;7.43;2.47;;;24.20;99.90;;;;;;5049919;28;20132;-69
2022/09/02 01:27:46;;;;;;;4.70;2.30;;;24.20;99.90;;;;;;5049881;28;20044;-69
2022/09/02 01:30:19;;;;;;;5.60;2.70;;;24.20;99.90;;;;;;5050184;28;20040;-69
2022/09/02 01:32:47;;;;;;;5.40;2.58;;;24.20;99.90;;;;;;5033590;28;20037;-69
2022/09/02 01:35:15;;;;;;;4.65;2.40;;;24.20;99.90;;;;;;5049825;28;20052;-69
2022/09/02 01:37:44;;;;;;;4.05;2.47;;;24.20;99.90;;;;;;5049493;28;20689;-69
2022/09/02 01:40:16;;;;;;;3.90;2.58;;;24.20;99.90;;;;;;5049808;28;20080;-69
2022/09/02 01:42:46;;;;;;;3.75;2.15;;;24.20;99.90;;;;;;5033191;28;20049;-69
2022/09/02 01:45:14;;;;;;;6.05;3.67;;;24.20;99.90;;;;;;5050955;28;20053;-69
2022/09/02 01:47:42;;;;;;;6.55;2.40;;;24.20;99.90;;;;;;5049281;28;20425;-70
2022/09/02 01:50:10;;;;;;;4.40;2.33;;;24.20;99.90;;;;;;5049608;28;20640;-71
2022/09/02 01:52:37;;;;;;;3.63;2.40;;;24.20;99.90;;;;;;5049747;28;20049;-69
2022/09/02 01:55:06;;;;;;;4.93;3.13;;;24.20;99.90;;;;;;5033238;28;20049;-69
2022/09/02 01:57:38;;;;;;;4.55;3.10;;;24.20;99.90;;;;;;5033024;28;20135;-69
2022/09/02 02:00:10;;;;;;;5.30;2.75;;;24.20;99.90;;;;;;5032767;28;20053;-69
2022/09/02 02:02:41;;;;;;;4.05;2.33;;;24.10;99.90;;;;;;5049394;28;20040;-69
2022/09/02 02:05:10;;;;;;;6.80;3.28;;;24.10;99.90;;;;;;5032852;28;20049;-70
2022/09/02 02:07:41;;;;;;;4.93;3.03;;;24.10;99.90;;;;;;5032633;28;20128;-69
2022/09/02 02:10:09;;;;;;;6.57;3.17;;;24.10;99.90;;;;;;5033020;28;20503;-69
2022/09/02 02:12:38;;;;;;;5.68;2.88;;;24.00;99.90;;;;;;5049263;28;20048;-70
2022/09/02 02:15:11;;;;;;;3.08;2.30;;;24.00;99.90;;;;;;5032706;28;20553;-69
2022/09/02 02:17:38;;;;;;;3.75;2.55;;;24.00;99.90;;;;;;5049187;28;20512;-69
2022/09/02 02:20:09;;;;;;;5.07;2.92;;;24.00;99.90;;;;;;5032573;28;20073;-70
2022/09/02 02:22:36;;;;;;;4.50;2.90;;;24.00;99.90;;;;;;5032499;28;20144;-70
2022/09/02 02:25:06;;;;;;;4.20;2.05;;;24.00;99.90;;;;;;5049460;28;20044;-70
2022/09/02 02:27:34;;;;;;;5.00;2.53;;;24.00;99.90;;;;;;5032685;28;20072;-69
2022/09/02 02:30:07;;;;;;;4.63;2.58;;;23.90;99.90;;;;;;5049251;28;20060;-69
2022/09/02 02:32:35;;;;;;;6.50;3.72;;;24.00;99.90;;;;;;5032604;28;20033;-70
2022/09/02 02:35:03;;;;;;;4.03;2.30;;;23.90;99.90;;;;;;5034296;28;20053;-69
2022/09/02 02:37:32;;;;;;;4.75;2.55;;;23.90;99.90;;;;;;5036227;28;20106;-70
2022/09/02 02:40:00;;;;;;;5.78;2.83;;;23.90;99.90;;;;;;5054533;28;20585;-69
2022/09/02 02:42:30;;;;;;;5.97;3.30;;;23.80;99.90;;;;;;5052812;28;20049;-69
2022/09/02 02:44:58;;;;;;;5.03;2.70;;;23.80;99.90;;;;;;5054343;28;20045;-70
2022/09/02 02:47:26;;;;;;;4.60;2.17;;;23.70;99.90;;;;;;5036563;28;20037;-69
2022/09/02 02:49:54;;;;;;;4.47;2.58;;;23.70;99.90;;;;;;5054157;28;20048;-70
2022/09/02 02:52:21;;;;;;;4.55;2.95;;;23.70;99.90;;;;;;5054113;28;20037;-70
2022/09/02 02:54:52;;;;;;;3.50;2.10;;;23.60;99.90;;;;;;5052827;28;20052;-70
2022/09/02 02:57:19;;;;;;;5.82;2.50;;;23.60;99.90;;;;;;5052821;28;20490;-70
2022/09/02 02:59:47;;;;;;;7.95;2.75;;;23.60;99.90;;;;;;5036186;28;20052;-69
2022/09/02 03:02:16;;;;;;;5.20;2.30;;;23.50;99.90;;;;;;5020124;28;20044;-69
2022/09/02 03:04:43;;;;;;;4.38;2.90;;;23.50;99.90;;;;;;5052786;28;20131;-69
2022/09/02 03:07:11;;;;;;;4.20;2.70;;;23.50;99.90;;;;;;5019958;28;20107;-69
2022/09/02 03:09:39;;;;;;;4.50;2.42;;;23.40;99.90;;;;;;5035981;28;20056;-69
2022/09/02 03:12:08;;;;;;;4.72;2.42;;;23.40;99.90;;;;;;5036121;28;20057;-69
2022/09/02 03:14:36;;;;;;;5.38;2.65;;;23.30;99.90;;;;;;5053622;28;20071;-69
2022/09/02 03:17:04;;;;;;;4.85;3.83;;;23.30;99.90;;;;;;5052578;28;20136;-70
2022/09/02 03:19:32;;;;;;;6.15;2.38;;;23.30;99.90;;;;;;5035669;28;20041;-70
2022/09/02 03:21:59;;;;;;;5.65;2.78;;;23.30;99.90;;;;;;5052266;28;20399;-69
2022/09/02 03:24:27;;;;;;;5.50;2.80;;;23.30;99.90;;;;;;5035589;28;20055;-69
2022/09/02 03:26:55;;;;;;;4.07;2.97;;;23.30;99.90;;;;;;5035728;28;20056;-70
2022/09/02 03:29:23;;;;;;;4.65;2.40;;;23.30;99.90;;;;;;5035594;28;20560;-69
2022/09/02 03:31:50;;;;;;;4.43;2.78;;;23.30;99.90;;;;;;5035689;28;20087;-69
2022/09/02 03:34:18;;;;;;;5.43;3.05;;;23.30;99.90;;;;;;5052172;28;20071;-69
2022/09/02 03:36:46;;;;;;;4.20;2.22;;;23.30;99.90;;;;;;5053006;28;20087;-69
2022/09/02 03:39:13;;;;;;;4.57;2.30;;;23.30;99.90;;;;;;5051985;28;20058;-69
2022/09/02 03:41:43;;;;;;;3.65;2.20;;;23.30;99.90;;;;;;5035286;28;20056;-70
2022/09/02 03:44:11;;;;;;;5.18;2.95;;;23.30;99.90;;;;;;5051742;28;20080;-70
2022/09/02 03:46:40;;;;;;;3.47;2.47;;;23.30;99.90;;;;;;5035696;28;20040;-69
2022/09/02 03:49:08;;;;;;;4.90;2.40;;;23.30;99.90;;;;;;5035488;28;20053;-69
2022/09/02 03:51:41;;;;;;;5.07;2.33;;;23.30;99.90;;;;;;5035270;28;20053;-69
2022/09/02 03:54:10;;;;;;;3.95;2.38;;;23.30;99.90;;;;;;5035457;28;20051;-70
2022/09/02 03:56:39;;;;;;;6.90;2.60;;;23.30;99.90;;;;;;5051724;28;20091;-72
2022/09/02 03:59:07;;;;;;;6.75;3.63;;;23.30;99.90;;;;;;5051797;28;20048;-69
2022/09/02 04:01:36;;;;;;;6.30;2.70;;;23.30;99.90;;;;;;5035147;28;20140;-69
2022/09/02 04:04:05;;;;;;;6.15;2.92;;;23.20;99.90;;;;;;5051245;28;20510;-70
2022/09/02 04:06:35;;;;;;;6.60;2.90;;;23.20;99.90;;;;;;5051503;28;20403;-69
2022/09/02 04:09:06;;;;;;;6.78;2.70;;;23.20;99.90;;;;;;5034720;28;20552;-70
2022/09/02 04:11:41;;;;;;;3.92;2.60;;;23.20;99.90;;;;;;5034635;28;20441;-70
2022/09/02 04:14:11;;;;;;;3.67;2.38;;;23.20;99.90;;;;;;5035564;28;20037;-69
2022/09/02 04:16:39;;;;;;;4.10;2.80;;;23.20;99.90;;;;;;5034971;28;20573;-70
2022/09/02 04:19:08;;;;;;;5.88;2.75;;;23.20;99.90;;;;;;5051353;28;20045;-69
2022/09/02 04:21:41;;;;;;;3.67;2.50;;;23.10;99.90;;;;;;5050952;28;20557;-69
2022/09/02 04:24:11;;;;;;;4.60;3.13;;;23.10;99.90;;;;;;5035129;28;20571;-69
2022/09/02 04:26:43;;;;;;;5.43;2.63;;;23.20;99.90;;;;;;5051107;28;20502;-70
2022/09/02 04:29:14;;;;;;;5.05;2.40;;;23.10;99.90;;;;;;5052584;28;20482;-69
2022/09/02 04:31:42;;;;;;;5.78;3.28;;;23.10;99.90;;;;;;5034430;28;20048;-71
2022/09/02 04:34:10;;;;;;;4.28;3.00;;;23.10;99.90;;;;;;5050881;28;20103;-70
2022/09/02 04:36:39;;;;;;;4.85;2.65;;;23.10;99.90;;;;;;5034197;28;20411;-70
2022/09/02 04:39:08;;;;;;;6.68;3.90;;;23.10;99.90;;;;;;5034628;28;20064;-70
2022/09/02 04:41:37;;;;;;;6.13;2.83;;;23.00;99.90;;;;;;5050900;28;20512;-69
2022/09/02 04:44:07;;;;;;;5.05;3.08;;;23.10;99.90;;;;;;5050840;28;20059;-69
2022/09/02 04:46:39;;;;;;;4.32;2.67;;;23.10;99.90;;;;;;5034041;28;20049;-70
2022/09/02 04:49:10;;;;;;;6.55;3.30;;;23.20;99.90;;;;;;5050759;28;20041;-70
2022/09/02 04:51:40;;;;;;;5.47;2.72;;;23.20;99.90;;;;;;5033997;28;20095;-70
2022/09/02 04:54:09;;;;;;;4.78;2.55;;;23.30;99.90;;;;;;5034524;28;20049;-70
2022/09/02 04:56:40;;;;;;;7.53;3.10;;;23.50;99.90;;;;;;5050369;28;20044;-70
2022/09/02 04:59:08;;;;;;;5.57;2.65;;;23.60;99.90;;;;;;5050164;28;20407;-69
2022/09/02 05:01:41;;;;;;;5.95;3.30;;;23.70;99.90;;;;;;5034666;28;20104;-70
2022/09/02 05:04:14;;;;;;;4.28;2.70;;;23.90;99.90;;;;;;5035393;28;20474;-69
2022/09/02 05:06:47;;;;;;;5.25;2.42;;;23.90;99.90;;;;;;5033907;28;20049;-69
2022/09/02 05:09:18;;;;;;;5.97;3.67;;;24.10;99.90;;;;;;5050312;28;20045;-70
2022/09/02 05:11:51;;;;;;;6.63;3.78;;;24.10;99.90;;;;;;5050105;28;20051;-70
2022/09/02 05:14:26;;;;;;;4.95;2.85;;;24.10;99.90;;;;;;5050171;28;20053;-69
2022/09/02 05:16:53;;;;;;;6.85;2.72;;;24.10;99.90;;;;;;5050496;28;20052;-70
2022/09/02 05:19:24;;;;;;;4.35;2.80;;;24.10;99.90;;;;;;5033697;28;20055;-70
2022/09/02 05:21:56;;;;;;;6.38;2.58;;;24.20;99.90;;;;;;5033485;28;20985;-70
2022/09/02 05:24:31;;;;;;;5.63;3.05;;;24.30;99.90;;;;;;5049995;28;20037;-70
2022/09/02 05:27:03;;;;;;;5.40;2.65;;;24.40;99.90;;;;;;5050453;28;20048;-69
2022/09/02 05:29:33;;;;;;;5.22;2.55;;;24.60;99.90;;;;;;5049915;28;20045;-70
2022/09/02 05:32:03;;;;;;;11.00;3.00;;;24.80;99.90;;;;;;5051279;28;20120;-70
2022/09/02 05:34:32;;;;;;;7.55;2.53;;;24.80;99.90;;;;;;5033143;28;20531;-70
2022/09/02 05:37:03;;;;;;;6.40;2.80;;;24.80;99.90;;;;;;5049535;28;20579;-69
2022/09/02 05:39:33;;;;;;;7.25;2.83;;;24.70;99.90;;;;;;5049760;28;20047;-69
2022/09/02 05:42:01;;;;;;;4.03;2.15;;;24.70;99.90;;;;;;5049505;28;20048;-71
2022/09/02 05:44:30;;;;;;;3.55;2.60;;;24.80;99.90;;;;;;5049372;28;20045;-71
2022/09/02 05:46:59;;;;;;;4.03;2.80;;;24.80;99.90;;;;;;5049250;28;20044;-70
2022/09/02 05:49:27;;;;;;;4.97;2.67;;;24.90;99.90;;;;;;5032631;28;20144;-70
2022/09/02 05:52:00;;;;;;;3.75;2.55;;;25.00;99.90;;;;;;5049544;28;20044;-70
2022/09/02 05:54:36;;;;;;;5.35;2.55;;;25.20;99.90;;;;;;5049236;28;20496;-70
2022/09/02 05:57:11;;;;;;;5.03;2.97;;;25.40;99.90;;;;;;5049352;28;20033;-70
2022/09/02 05:59:43;;;;;;;4.13;2.67;;;25.60;99.90;;;;;;5032816;28;20088;-71
2022/09/02 06:02:17;;;;;;;8.95;2.47;;;25.70;99.90;;;;;;5032825;28;20052;-70
2022/09/02 06:04:47;;;;;;;3.78;2.10;;;25.80;99.90;;;;;;5049205;28;20114;-70
2022/09/02 06:07:17;;;;;;;3.88;2.28;;;26.00;99.90;;;;;;5049187;28;20044;-70
2022/09/02 06:09:47;;;;;;;11.38;2.67;;;26.00;99.90;;;;;;5031314;28;20045;-70
2022/09/02 06:12:19;;;;;;;5.20;2.20;;;26.10;99.90;;;;;;5049104;28;20040;-70
2022/09/02 06:14:48;;;;;;;3.95;2.17;;;26.20;99.90;;;;;;5032193;28;20446;-70
2022/09/02 06:17:18;;;;;;;6.35;2.03;;;26.40;99.90;;;;;;5049546;28;20403;-70
2022/09/02 06:19:49;;;;;;;3.72;1.85;;;26.50;99.90;;;;;;5049196;28;20077;-70
2022/09/02 06:22:17;;;;;;;4.53;2.15;;;26.70;99.90;;;;;;5048897;28;20091;-70
2022/09/02 06:24:47;;;;;;;5.10;2.03;;;26.80;99.90;;;;;;5032587;28;20060;-70
2022/09/02 06:27:20;;;;;;;4.47;2.47;;;27.00;99.90;;;;;;5032664;28;20446;-70
2022/09/02 06:29:51;;;;;;;3.78;2.95;;;27.10;99.90;;;;;;5048939;28;20434;-70
2022/09/02 06:32:21;;;;;;;3.58;1.92;;;27.10;99.90;;;;;;5050553;28;20037;-70
2022/09/02 06:34:53;;;;;;;3.95;2.47;;;27.20;99.90;;;;;;5049434;28;20075;-71
2022/09/02 06:37:23;;;;;;;4.80;2.28;;;27.30;99.90;;;;;;5048921;28;20578;-70
2022/09/02 06:39:51;;;;;;;4.40;1.83;;;27.30;99.90;;;;;;5048769;28;20052;-70
2022/09/02 06:42:22;;;;;;;3.03;1.90;;;27.30;99.90;;;;;;5049385;28;20076;-70
2022/09/02 06:45:08;;;;;;;6.47;2.28;;;27.50;99.90;;;;;;5049040;28;20045;-70
2022/09/02 06:47:37;;;;;;;4.93;2.30;;;27.60;99.90;;;;;;5050033;28;20559;-70
2022/09/02 06:50:05;;;;;;;2.97;2.03;;;27.70;99.90;;;;;;5048982;28;20130;-69
2022/09/02 06:52:33;;;;;;;4.22;2.67;;;27.90;99.90;;;;;;5048969;28;20060;-70
2022/09/02 06:55:00;;;;;;;4.30;2.03;;;28.00;99.90;;;;;;5050363;28;20053;-73
2022/09/02 06:57:28;;;;;;;2.60;1.70;;;28.20;99.90;;;;;;5049293;28;20394;-70
2022/09/02 06:59:56;;;;;;;4.32;2.15;;;28.30;99.90;;;;;;5048795;28;20041;-70
2022/09/02 07:02:26;;;;;;;3.15;2.10;;;28.40;99.90;;;;;;5048822;28;20052;-71
2022/09/02 07:05:10;;;;;;;4.53;2.20;;;28.50;99.90;;;;;;5050424;28;20049;-70
2022/09/02 07:07:40;;;;;;;3.30;1.88;;;28.70;99.90;;;;;;5032512;28;20053;-69
2022/09/02 07:10:13;;;;;;;4.22;2.55;;;28.80;99.90;;;;;;5048953;28;20140;-70
2022/09/02 07:12:45;;;;;;;5.32;2.13;;;28.90;99.90;;;;;;5016841;28;20091;-69
2022/09/02 07:15:15;;;;;;;4.88;2.25;;;28.80;99.90;;;;;;5049010;28;20148;-70
2022/09/02 07:17:44;;;;;;;3.30;2.05;;;28.80;99.90;;;;;;5049785;28;20558;-70
2022/09/02 07:20:22;;;;;;;5.53;2.30;;;28.90;99.90;;;;;;5034356;28;20044;-70
2022/09/02 07:22:55;;;;;;;7.75;3.05;;;29.00;99.90;;;;;;5052456;28;20037;-70
2022/09/02 07:25:25;;;;;;;3.85;1.98;;;29.10;99.90;;;;;;5035744;28;20049;-70
2022/09/02 07:27:53;;;;;;;4.80;2.40;;;29.20;99.90;;;;;;5035202;28;20057;-70
2022/09/02 07:30:22;;;;;;;3.33;1.80;;;29.30;99.90;;;;;;5035625;28;20131;-70
2022/09/02 07:33:03;;;;;;;4.80;2.08;;;29.50;99.90;;;;;;5052379;28;20041;-70
2022/09/02 07:35:32;;;;;;;3.17;2.00;;;29.50;99.90;;;;;;5035973;28;20083;-70
2022/09/02 07:38:03;;;;;;;3.67;1.88;;;29.30;99.80;;;;;;5052093;28;20131;-71
2022/09/02 07:40:32;;;;;;;3.42;1.77;;;29.40;99.90;;;;;;5052640;28;20045;-71
2022/09/02 07:42:59;;;;;;;5.05;1.98;;;29.40;99.90;;;;;;5052316;28;20086;-70
2022/09/02 07:45:28;;;;;;;2.50;1.58;;;29.30;99.90;;;;;;5052168;28;20369;-70
2022/09/02 07:47:57;;;;;;;4.55;2.10;;;29.10;99.90;;;;;;5035135;28;20553;-70
2022/09/02 07:50:26;;;;;;;5.05;2.10;;;29.00;99.90;;;;;;5035388;28;20049;-70
2022/09/02 07:52:57;;;;;;;3.80;2.33;;;28.80;99.90;;;;;;5051800;28;20150;-70
2022/09/02 07:55:29;;;;;;;4.85;1.98;;;28.60;99.90;;;;;;5052126;28;20069;-69
2022/09/02 07:57:58;;;;;;;3.55;2.03;;;28.40;99.90;;;;;;5052052;28;20045;-70
2022/09/02 08:00:26;;;;;;;4.20;2.42;;;28.30;99.90;;;;;;5053088;28;20094;-70
2022/09/02 08:03:00;;;;;;;3.67;2.40;;;28.40;99.90;;;;;;5051734;28;20045;-70
2022/09/02 08:05:34;;;;;;;3.55;2.15;;;28.70;99.90;;;;;;5034718;28;20084;-70
2022/09/02 08:08:03;;;;;;;3.92;1.75;;;28.90;99.90;;;;;;5051892;28;20041;-70
2022/09/02 08:10:31;;;;;;;3.75;2.20;;;29.10;99.80;;;;;;5052944;28;20484;-69
2022/09/02 08:13:00;;;;;;;2.80;1.77;;;29.30;99.60;;;;;;5052708;28;20076;-70
2022/09/02 08:15:29;;;;;;;4.88;2.08;;;29.50;99.00;;;;;;5051500;28;20041;-70
2022/09/02 08:17:58;;;;;;;5.80;2.88;;;29.80;99.00;;;;;;5052576;28;20045;-70
2022/09/02 08:20:29;;;;;;;3.45;2.22;;;30.00;99.00;;;;;;5034948;28;20395;-70
2022/09/02 08:22:57;;;;;;;2.55;1.67;;;29.90;98.90;;;;;;5035244;28;20122;-70
2022/09/02 08:25:25;;;;;;;4.85;1.80;;;29.70;98.70;;;;;;5034620;28;20076;-69
2022/09/02 08:27:53;;;;;;;3.85;2.03;;;29.60;98.70;;;;;;5050982;28;20072;-70
2022/09/02 08:30:26;;;;;;;2.60;1.90;;;29.60;98.50;;;;;;5053044;28;20045;-70
2022/09/02 08:32:54;;;;;;;4.00;1.80;;;29.80;98.60;;;;;;5050011;28;20092;-70
2022/09/02 08:35:22;;;;;;;4.55;1.98;;;30.00;98.30;;;;;;5051265;28;20055;-70
2022/09/02 08:37:49;;;;;;;5.28;2.17;;;30.00;97.90;;;;;;5050859;28;20049;-70
2022/09/02 08:40:22;;;;;;;3.45;1.77;;;30.20;97.90;;;;;;5052297;28;20041;-70
2022/09/02 08:42:55;;;;;;;2.78;1.63;;;30.20;97.80;;;;;;5046059;28;20034;-70
2022/09/02 08:45:31;;;;;;;5.97;1.90;;;30.20;97.80;;;;;;5039556;28;20061;-70
2022/09/02 08:48:11;;;;;;;3.80;1.90;;;30.00;97.80;;;;;;5025407;28;20400;-70
2022/09/02 08:50:43;;;;;;;3.78;2.05;;;30.00;97.80;;;;;;5052044;28;20049;-70
2022/09/02 08:53:31;;;;;;;4.95;1.90;;;29.90;97.50;;;;;;5045618;28;20064;-70
2022/09/02 08:56:00;;;;;;;3.17;2.22;;;29.90;97.50;;;;;;5036434;28;20045;-71
2022/09/02 08:58:38;;;;;;;9.30;2.85;;;30.00;97.60;;;;;;5014877;28;20045;-70
2022/09/02 09:01:36;;;;;;;2.92;1.83;;;29.90;97.60;;;;;;5034160;28;20050;-71
2022/09/02 09:04:32;;;;;;;3.53;1.67;;;29.90;97.70;;;;;;5033686;28;20056;-71
2022/09/02 09:07:24;;;;;;;3.85;2.40;;;29.80;98.00;;;;;;5017833;28;20053;-70
2022/09/02 09:10:29;;;;;;;4.82;2.45;;;29.60;97.70;;;;;;5033586;28;20080;-70
2022/09/02 09:13:18;;;;;;;4.45;2.53;;;29.70;97.80;;;;;;5030553;28;20095;-71
2022/09/02 09:16:23;;;;;;;5.13;2.75;;;29.90;97.90;;;;;;5026507;28;20045;-70
2022/09/02 09:19:20;;;;;;;5.43;2.45;;;29.90;97.90;;;;;;5038180;28;20064;-70
2022/09/02 09:21:48;;;;;;;3.38;1.85;;;30.00;98.10;;;;;;5031513;28;20041;-70
2022/09/02 09:24:28;;;;;;;6.13;2.25;;;30.00;97.60;;;;;;4998704;28;20057;-69
2022/09/02 09:26:56;;;;;;;3.60;2.10;;;30.00;97.30;;;;;;5043166;28;20362;-69
2022/09/02 09:29:24;;;;;;;2.85;2.08;;;29.90;97.50;;;;;;5022677;28;20056;-69
2022/09/02 09:31:59;;;;;;;3.30;2.03;;;29.80;97.40;;;;;;5038746;28;20258;-71
2022/09/02 09:34:45;;;;;;;;;;;29.60;97.70;;;;;;5036609;28;20055;-69
2022/09/02 09:37:33;;;;;;;3.35;2.28;;;29.40;97.50;;;;;;5034521;28;19929;-70
2022/09/02 09:40:23;;;;;;;2.88;1.60;;;29.20;97.70;;;;;;5055817;28;20076;-70
2022/09/02 09:43:09;;;;;;;5.00;3.22;;;28.90;98.00;;;;;;5046039;28;20040;-71
2022/09/02 09:45:47;;;;;;;2.75;2.03;;;28.80;98.20;;;;;;5032077;28;20037;-69
2022/09/02 09:48:15;;;;;;;5.07;2.40;;;28.60;98.60;;;;;;5029238;28;20110;-70
2022/09/02 09:50:56;;;;;;;3.58;1.80;;;28.60;98.80;;;;;;5029662;28;20046;-72
2022/09/02 09:53:28;;;;;;;5.13;1.95;;;28.70;98.20;;;;;;5040434;28;20045;-70
2022/09/02 09:56:00;;;;;;;4.10;1.70;;;28.70;98.00;;;;;;5016020;28;20049;-70
2022/09/02 09:58:40;;;;;;;2.83;1.83;;;28.70;98.10;;;;;;5050081;28;20376;-70
2022/09/02 10:01:19;;;;;;;4.78;2.67;;;28.60;98.70;;;;;;5042154;28;20025;-70
2022/09/02 10:04:09;;;;;;;3.97;2.33;;;28.50;98.70;;;;;;5050676;28;20040;-70
2022/09/02 10:06:57;;;;;;;3.78;1.70;;;28.30;98.60;;;;;;5034814;28;20053;-70
2022/09/02 10:09:36;;;;;;;4.68;2.25;;;28.20;98.60;;;;;;5036225;28;20045;-70
2022/09/02 10:12:05;;;;;;;3.15;1.92;;;28.00;98.80;;;;;;5039449;28;20049;-70
2022/09/02 10:14:40;;;;;;;2.85;1.80;;;28.00;98.90;;;;;;5041235;28;20044;-69
2022/09/02 10:17:14;;;;;;;;;;;27.90;99.00;;;;;;5034019;28;20121;-70
2022/09/02 10:20:07;;;;;;;6.05;2.47;;;27.90;99.10;;;;;;5030239;28;20677;-70
2022/09/02 10:23:09;;;;;;;4.35;2.08;;;27.90;99.10;;;;;;5025418;28;20403;-70
2022/09/02 10:26:04;;;;;;;5.47;1.95;;;28.20;99.10;;;;;;5039428;28;20056;-71
2022/09/02 10:29:09;;;;;;;2.92;1.88;;;28.40;99.10;;;;;;5038796;28;20103;-70
2022/09/02 10:31:50;;;;;;;3.83;1.80;;;28.30;98.20;;;;;;5035680;28;20043;-69
2022/09/02 10:34:20;;;;;;;4.53;2.20;;;28.20;98.40;;;;;;5024412;28;20400;-69
2022/09/02 10:37:11;;;;;;;2.67;1.65;;;28.10;98.40;;;;;;5029267;28;20164;-70
2022/09/02 10:40:14;;;;;;;4.57;2.10;;;28.00;98.60;;;;;;5033136;28;20052;-70
2022/09/02 10:43:04;;;;;;;3.90;1.60;;;27.90;98.90;;;;;;5037174;28;20068;-70
2022/09/02 10:45:49;;;;;;;3.60;2.17;;;27.80;99.50;;;;;;5031043;28;20077;-70
2022/09/02 10:48:44;;;;;;;3.88;1.98;;;27.70;99.60;;;;;;5030503;28;20057;-69
2022/09/02 10:51:32;;;;;;;3.17;2.40;;;27.70;99.80;;;;;;5029780;28;20045;-70
2022/09/02 10:54:00;;;;;;;3.70;1.80;;;27.70;99.90;;;;;;5028842;28;20053;-70
2022/09/02 10:56:52;;;;;;;3.35;1.85;;;27.70;99.90;;;;;;5033020;28;20053;-70
2022/09/02 10:59:34;;;;;;;4.75;2.00;;;27.70;99.90;;;;;;5016692;28;20575;-70
2022/09/02 11:02:19;;;;;;;3.65;2.22;;;27.70;99.70;;;;;;5016811;28;20057;-70
2022/09/02 11:04:49;;;;;;;3.95;2.20;;;27.80;99.90;;;;;;5016366;28;20056;-70
2022/09/02 11:07:24;;;;;;;3.58;2.00;;;28.10;99.90;;;;;;5032786;28;20515;-69
2022/09/02 11:10:04;;;;;;;6.88;2.40;;;28.30;99.90;;;;;;5033345;28;20443;-69
2022/09/02 11:12:49;;;;;;;6.22;2.83;;;28.60;99.90;;;;;;5031549;28;20415;-69
2022/09/02 11:15:31;;;;;;;4.03;2.50;;;28.70;99.70;;;;;;5031948;28;20136;-70
2022/09/02 11:18:17;;;;;;;4.07;2.50;;;28.80;99.70;;;;;;5033855;28;20038;-70
2022/09/02 11:20:52;;;;;;;;;;;28.90;99.80;;;;;;5033389;28;20392;-69
2022/09/02 11:23:25;;;;;;;6.80;2.70;;;28.90;99.60;;;;;;5015961;28;19921;-70
2022/09/02 11:25:53;;;;;;;3.35;2.53;;;28.80;99.70;;;;;;5032353;28;20069;-69
2022/09/02 11:28:31;;;;;;;4.38;2.15;;;28.70;99.40;;;;;;5033622;28;20352;-69
2022/09/02 11:31:32;;;;;;;4.05;2.53;;;28.50;99.20;;;;;;5041328;28;20041;-70
2022/09/02 11:34:21;;;;;;;4.47;2.20;;;28.20;99.70;;;;;;5049448;28;20055;-70
2022/09/02 11:36:49;;;;;;;4.78;2.53;;;28.20;99.80;;;;;;5052030;28;20053;-72
2022/09/02 11:39:35;;;;;;;7.45;2.63;;;28.20;99.70;;;;;;5053344;28;20045;-70
2022/09/02 11:42:37;;;;;;;3.35;2.22;;;28.40;99.50;;;;;;5029273;28;20052;-70
2022/09/02 11:45:42;;;;;;;3.80;2.35;;;28.40;99.10;;;;;;5032666;28;20048;-71
2022/09/02 11:48:52;;;;;;;4.63;2.25;;;28.50;99.40;;;;;;5048958;28;20044;-70
2022/09/02 11:51:42;;;;;;;3.95;2.15;;;28.60;99.20;;;;;;5032606;28;20055;-70
2022/09/02 11:54:13;;;;;;;5.05;2.38;;;28.70;99.20;;;;;;5032317;28;20076;-70
2022/09/02 11:56:46;;;;;;;4.60;2.85;;;28.80;99.10;;;;;;5039370;28;20088;-72
2022/09/02 11:59:51;;;;;;;6.55;2.50;;;28.60;99.10;;;;;;5043006;28;20399;-72
2022/09/02 12:02:57;;;;;;;5.25;2.53;;;28.50;99.00;;;;;;5025196;28;20042;-71
2022/09/02 12:05:30;;;;;;;4.97;2.20;;;28.30;99.20;;;;;;5007980;28;20081;-71
2022/09/02 12:08:03;;;;;;;6.72;2.00;;;28.20;99.20;;;;;;5001726;28;20056;-71
2022/09/02 12:10:46;;;;;;;7.55;2.75;;;28.20;99.40;;;;;;5032211;28;20047;-70
2022/09/02 12:13:44;;;;;;;4.03;2.70;;;28.20;99.50;;;;;;5043747;28;20099;-71
2022/09/02 12:16:15;;;;;;;4.13;2.58;;;28.10;99.30;;;;;;5043015;28;20128;-71
2022/09/02 12:18:43;;;;;;;6.13;2.60;;;28.10;99.30;;;;;;5042232;28;20072;-70
2022/09/02 12:21:13;;;;;;;4.75;2.40;;;28.00;99.30;;;;;;5036932;28;20049;-70
2022/09/02 12:23:51;;;;;;;5.10;2.47;;;28.10;99.30;;;;;;5038518;28;20041;-70
2022/09/02 12:26:36;;;;;;;5.63;3.05;;;28.10;99.00;;;;;;5043244;28;20037;-70
2022/09/02 12:29:18;;;;;;;5.35;2.63;;;28.10;99.00;;;;;;5057088;28;20821;-70
2022/09/02 12:31:47;;;;;;;5.05;2.47;;;28.20;98.90;;;;;;5038439;28;20436;-71
2022/09/02 12:34:24;;;;;;;4.55;2.30;;;28.30;98.90;;;;;;5047756;28;20467;-70
2022/09/02 12:37:00;;;;;;;5.88;2.75;;;28.40;98.70;;;;;;5020486;28;20057;-71
2022/09/02 12:39:43;;;;;;;3.00;2.42;;;28.30;98.40;;;;;;5030848;28;20050;-70
2022/09/02 12:42:32;;;;;;;4.18;2.40;;;28.30;98.40;;;;;;5012790;28;20400;-72
2022/09/02 12:45:13;;;;;;;3.20;2.30;;;28.40;98.50;;;;;;5034203;28;20044;-70
2022/09/02 12:48:07;;;;;;;4.25;2.88;;;28.50;98.50;;;;;;5031356;28;20804;-70
2022/09/02 12:50:44;;;;;;;3.45;2.55;;;28.50;97.70;;;;;;5033000;28;20067;-71
2022/09/02 12:53:31;;;;;;;4.40;2.65;;;28.40;97.50;;;;;;5032614;28;20041;-70
2022/09/02 12:56:14;;;;;;;5.65;2.70;;;28.40;97.50;;;;;;5032073;28;20051;-70
2022/09/02 12:58:49;;;;;;;5.28;2.38;;;28.30;97.50;;;;;;5042094;28;20072;-72
2022/09/02 13:01:42;;;;;;;3.50;2.43;;;28.20;97.50;;;;;;5039992;28;20091;-71
2022/09/02 13:04:32;;;;;;;5.30;3.35;;;28.20;97.60;;;;;;5031041;28;20068;-71
2022/09/02 13:07:04;;;;;;;3.97;3.00;;;28.20;97.40;;;;;;5034049;28;20083;-71
2022/09/02 13:10:02;;;;;;;3.38;2.60;;;28.20;97.60;;;;;;5050357;28;20138;-70
2022/09/02 13:13:07;;;;;;;6.55;2.40;;;28.20;97.50;;;;;;5033638;28;20582;-71
2022/09/02 13:16:10;;;;;;;5.68;3.03;;;28.20;97.60;;;;;;5034247;28;20049;-70
2022/09/02 13:19:11;;;;;;;4.80;2.60;;;28.20;97.80;;;;;;5031419;28;20041;-72
2022/09/02 13:22:03;;;;;;;3.47;2.25;;;28.10;98.20;;;;;;5036346;28;20041;-72
2022/09/02 13:25:01;;;;;;;3.70;2.33;;;28.10;98.20;;;;;;5013925;28;20054;-70
2022/09/02 13:27:45;;;;;;;6.38;3.25;;;28.00;98.20;;;;;;5032809;28;20056;-72